createdAt,value
2022-12-26T00:00:59.090Z,47.87
2022-12-26T00:03:38.469Z,42.63
2022-12-26T00:06:16.489Z,39.43
2022-12-26T00:08:44.553Z,44.00
2022-12-26T00:11:12.599Z,42.23
2022-12-26T00:13:41.714Z,44.23
2022-12-26T00:16:20.729Z,45.70
2022-12-26T00:18:49.183Z,39.67
2022-12-26T00:21:18.384Z,42.93
2022-12-26T00:23:45.940Z,46.80
2022-12-26T00:26:19.492Z,42.70
2022-12-26T00:28:46.994Z,42.23
2022-12-26T00:31:17.650Z,46.30
2022-12-26T00:33:44.953Z,46.50
2022-12-26T00:36:15.461Z,42.73
2022-12-26T00:38:43.993Z,46.77
2022-12-26T00:41:13.076Z,46.83
2022-12-26T00:43:40.065Z,40.20
2022-12-26T00:46:07.599Z,49.53
2022-12-26T00:48:34.534Z,43.93
2022-12-26T00:51:02.210Z,46.33
2022-12-26T00:53:29.713Z,38.87
2022-12-26T00:55:57.208Z,44.40
2022-12-26T00:58:24.543Z,54.13
2022-12-26T01:00:52.495Z,39.90
2022-12-26T01:03:20.075Z,40.00
2022-12-26T01:05:49.937Z,45.67
2022-12-26T01:08:23.453Z,39.70
2022-12-26T01:10:52.116Z,46.10
2022-12-26T01:13:19.250Z,44.87
2022-12-26T01:15:50.810Z,41.77
2022-12-26T01:18:18.028Z,40.83
2022-12-26T01:20:45.445Z,43.10
2022-12-26T01:23:12.382Z,49.03
2022-12-26T01:26:14.908Z,41.57
2022-12-26T01:28:27.221Z,37.00
2022-12-26T01:30:54.762Z,42.40
2022-12-26T01:33:21.694Z,45.73
2022-12-26T01:35:53.287Z,38.33
2022-12-26T01:38:21.610Z,41.97
2022-12-26T01:41:09.975Z,40.97
2022-12-26T01:44:04.847Z,41.87
2022-12-26T01:46:45.023Z,40.90
2022-12-26T01:49:20.804Z,46.63
2022-12-26T01:51:53.362Z,39.53
2022-12-26T01:54:39.168Z,47.40
2022-12-26T01:57:15.103Z,42.27
2022-12-26T01:59:42.527Z,39.97
2022-12-26T02:02:10.314Z,44.40
2022-12-26T02:04:59.970Z,44.30
2022-12-26T02:07:27.316Z,45.67
2022-12-26T02:09:54.696Z,48.10
2022-12-26T02:12:34.130Z,43.70
2022-12-26T02:15:08.704Z,47.90
2022-12-26T02:17:37.166Z,42.13
2022-12-26T02:20:25.791Z,47.60
2022-12-26T02:23:08.118Z,52.57
2022-12-26T02:25:53.937Z,44.43
2022-12-26T02:28:49.005Z,46.80
2022-12-26T02:31:28.744Z,47.80
2022-12-26T02:34:12.508Z,46.57
2022-12-26T02:37:01.235Z,43.97
2022-12-26T02:39:45.343Z,52.47
2022-12-26T02:42:43.806Z,43.87
2022-12-26T02:45:58.904Z,48.03
2022-12-26T02:48:52.364Z,48.50
2022-12-26T02:52:07.497Z,54.33
2022-12-26T02:55:33.517Z,53.13
2022-12-26T02:58:38.360Z,54.97
2022-12-26T03:01:36.607Z,46.97
2022-12-26T03:04:27.810Z,49.57
2022-12-26T03:07:17.192Z,52.47
2022-12-26T03:10:05.254Z,50.93
2022-12-26T03:13:13.249Z,47.63
2022-12-26T03:16:23.228Z,52.80
2022-12-26T03:18:58.151Z,48.90
2022-12-26T03:21:32.204Z,50.53
2022-12-26T03:23:59.770Z,51.90
2022-12-26T03:26:41.340Z,46.37
2022-12-26T03:29:33.907Z,41.37
2022-12-26T03:32:03.876Z,46.00
2022-12-26T03:34:30.850Z,47.97
2022-12-26T03:37:48.585Z,52.07
2022-12-26T03:40:43.632Z,52.50
2022-12-26T03:44:14.862Z,47.67
2022-12-26T03:47:12.946Z,46.30
2022-12-26T03:50:15.354Z,44.93
2022-12-26T03:53:06.653Z,48.57
2022-12-26T03:56:00.792Z,47.37
2022-12-26T03:59:13.192Z,45.83
2022-12-26T04:02:01.345Z,54.63
2022-12-26T04:04:51.869Z,45.77
2022-12-26T04:07:56.468Z,47.80
2022-12-26T04:10:53.377Z,46.73
2022-12-26T04:13:45.855Z,49.77
2022-12-26T04:16:54.825Z,42.80
2022-12-26T04:19:28.297Z,49.40
2022-12-26T04:22:53.751Z,50.90
2022-12-26T04:25:49.487Z,49.70
2022-12-26T04:28:39.466Z,46.60
2022-12-26T04:31:45.405Z,50.27
2022-12-26T04:34:44.248Z,46.57
2022-12-26T04:37:39.455Z,45.57
2022-12-26T04:40:30.637Z,48.47
2022-12-26T04:43:46.769Z,46.23
2022-12-26T04:46:05.383Z,54.20
2022-12-26T04:48:52.497Z,56.67
2022-12-26T04:51:19.435Z,48.20
2022-12-26T04:53:46.642Z,45.13
2022-12-26T04:56:14.824Z,45.37
2022-12-26T04:58:42.013Z,48.63
2022-12-26T05:01:28.275Z,49.60
2022-12-26T05:04:14.043Z,49.53
2022-12-26T05:07:00.139Z,56.47
2022-12-26T05:09:36.654Z,52.83
2022-12-26T05:12:05.435Z,43.83
2022-12-26T05:14:35.731Z,42.97
2022-12-26T05:17:25.827Z,41.90
2022-12-26T05:20:11.751Z,40.43
2022-12-26T05:22:59.825Z,39.57
2022-12-26T05:25:48.499Z,43.47
2022-12-26T05:28:36.040Z,49.40
2022-12-26T05:31:04.504Z,46.10
2022-12-26T05:33:50.619Z,42.13
2022-12-26T05:36:20.680Z,42.73
2022-12-26T05:38:48.495Z,45.13
2022-12-26T05:41:16.318Z,43.03
2022-12-26T05:43:43.307Z,49.53
2022-12-26T05:46:10.640Z,58.07
2022-12-26T05:48:37.685Z,45.37
2022-12-26T05:51:05.392Z,43.33
2022-12-26T05:53:33.436Z,43.50
2022-12-26T05:56:05.716Z,52.03
2022-12-26T05:58:33.157Z,55.87
2022-12-26T06:01:12.784Z,52.00
2022-12-26T06:03:41.734Z,57.00
2022-12-26T06:06:10.421Z,57.43
2022-12-26T06:08:39.315Z,50.83
2022-12-26T06:11:09.195Z,44.23
2022-12-26T06:13:40.339Z,44.40
2022-12-26T06:16:10.226Z,45.30
2022-12-26T06:18:38.105Z,44.37
2022-12-26T06:21:07.852Z,48.40
2022-12-26T06:23:36.169Z,39.83
2022-12-26T06:26:04.726Z,40.93
2022-12-26T06:28:33.710Z,56.43
2022-12-26T06:31:34.931Z,54.07
2022-12-26T06:34:02.194Z,54.80
2022-12-26T06:36:29.983Z,56.80
2022-12-26T06:38:57.517Z,39.67
2022-12-26T06:41:25.613Z,38.90
2022-12-26T06:43:53.310Z,40.40
2022-12-26T06:46:22.778Z,42.67
2022-12-26T06:48:50.238Z,43.97
2022-12-26T06:51:23.521Z,44.33
2022-12-26T06:53:52.158Z,49.43
2022-12-26T06:56:22.760Z,40.60
2022-12-26T06:58:54.781Z,39.03
2022-12-26T07:01:23.350Z,37.37
2022-12-26T07:03:52.599Z,38.63
2022-12-26T07:06:29.069Z,37.47
2022-12-26T07:09:04.544Z,36.80
2022-12-26T07:11:34.017Z,41.20
2022-12-26T07:14:01.393Z,39.67
2022-12-26T07:16:29.016Z,34.80
2022-12-26T07:18:57.636Z,35.07
2022-12-26T07:21:25.780Z,34.00
2022-12-26T07:23:54.231Z,34.63
2022-12-26T07:26:22.267Z,34.17
2022-12-26T07:28:49.393Z,37.40
2022-12-26T07:31:18.365Z,35.40
2022-12-26T07:33:49.984Z,35.23
2022-12-26T07:36:17.988Z,32.20
2022-12-26T07:38:45.755Z,34.50
2022-12-26T07:41:32.500Z,35.10
2022-12-26T07:43:59.760Z,34.47
2022-12-26T07:46:27.065Z,34.77
2022-12-26T07:48:54.186Z,33.97
2022-12-26T07:51:21.835Z,35.43
2022-12-26T07:53:49.032Z,36.23
2022-12-26T07:56:16.606Z,31.40
2022-12-26T07:58:43.656Z,30.07
2022-12-26T08:01:10.960Z,31.73
2022-12-26T08:03:38.608Z,33.07
2022-12-26T08:06:06.317Z,35.03
2022-12-26T08:08:33.272Z,29.97
2022-12-26T08:11:02.573Z,32.13
2022-12-26T08:13:30.126Z,33.43
2022-12-26T08:15:58.233Z,29.83
2022-12-26T08:18:26.039Z,30.10
2022-12-26T08:20:53.280Z,23.57
2022-12-26T08:23:20.275Z,22.87
2022-12-26T08:25:47.590Z,24.10
2022-12-26T08:28:14.579Z,22.63
2022-12-26T08:30:42.202Z,23.30
2022-12-26T08:33:10.713Z,20.77
2022-12-26T08:35:39.380Z,21.57
2022-12-26T08:38:06.699Z,22.13
2022-12-26T08:40:43.183Z,26.37
2022-12-26T08:46:06.971Z,20.90
2022-12-26T08:48:35.168Z,23.40
2022-12-26T08:51:08.743Z,22.73
2022-12-26T08:53:36.392Z,24.90
2022-12-26T08:56:06.447Z,24.23
2022-12-26T08:58:34.466Z,26.37
2022-12-26T09:01:13.476Z,20.07
2022-12-26T09:03:41.481Z,22.23
2022-12-26T09:06:09.859Z,21.50
2022-12-26T09:08:38.079Z,28.13
2022-12-26T09:11:12.338Z,29.30
2022-12-26T09:13:40.351Z,25.10
2022-12-26T09:16:23.285Z,26.33
2022-12-26T09:18:58.260Z,23.83
2022-12-26T09:21:25.744Z,26.77
2022-12-26T09:23:57.686Z,24.53
2022-12-26T09:26:25.891Z,26.97
2022-12-26T09:28:53.200Z,26.37
2022-12-26T09:31:23.342Z,22.67
2022-12-26T09:33:51.059Z,23.13
2022-12-26T09:36:20.807Z,22.07
2022-12-26T09:38:48.871Z,24.03
2022-12-26T09:42:00.818Z,22.93
2022-12-26T09:44:53.224Z,22.57
2022-12-26T09:47:45.251Z,21.27
2022-12-26T09:50:24.704Z,25.27
2022-12-26T09:53:17.560Z,25.00
2022-12-26T09:55:53.410Z,23.43
2022-12-26T09:58:26.527Z,27.53
2022-12-26T10:01:15.289Z,23.90
2022-12-26T10:03:47.788Z,26.67
2022-12-26T10:06:16.731Z,26.53
2022-12-26T10:08:46.552Z,28.20
2022-12-26T10:11:28.445Z,26.13
2022-12-26T10:14:04.351Z,24.17
2022-12-26T10:17:03.562Z,28.20
2022-12-26T10:20:02.482Z,28.83
2022-12-26T10:22:32.001Z,27.20
2022-12-26T10:25:01.655Z,27.57
2022-12-26T10:27:37.197Z,26.67
2022-12-26T10:30:07.555Z,29.50
2022-12-26T10:32:43.341Z,28.63
2022-12-26T10:35:27.729Z,27.77
2022-12-26T10:37:58.239Z,26.90
2022-12-26T10:40:33.905Z,24.37
2022-12-26T10:43:20.510Z,28.30
2022-12-26T10:46:06.246Z,26.33
2022-12-26T10:48:33.326Z,28.20
2022-12-26T10:51:00.551Z,33.07
2022-12-26T10:53:27.591Z,31.00
2022-12-26T10:55:54.988Z,30.70
2022-12-26T10:58:28.123Z,27.17
2022-12-26T11:00:55.419Z,27.50
2022-12-26T11:03:22.882Z,26.90
2022-12-26T11:06:11.163Z,29.20
2022-12-26T11:08:49.291Z,27.20
2022-12-26T11:11:45.991Z,26.97
2022-12-26T11:14:33.222Z,24.87
2022-12-26T11:17:06.157Z,28.67
2022-12-26T11:19:42.512Z,26.53
2022-12-26T11:22:29.876Z,33.47
2022-12-26T11:25:13.181Z,28.23
2022-12-26T11:28:05.089Z,25.67
2022-12-26T11:30:36.963Z,29.37
2022-12-26T11:33:23.063Z,26.90
2022-12-26T11:36:21.970Z,27.30
2022-12-26T11:39:02.344Z,22.40
2022-12-26T11:41:32.178Z,26.97
2022-12-26T11:44:05.671Z,23.77
2022-12-26T11:46:47.481Z,27.50
2022-12-26T11:49:22.283Z,28.87
2022-12-26T11:51:55.626Z,27.37
2022-12-26T11:54:30.564Z,24.90
2022-12-26T11:57:41.699Z,27.33
2022-12-26T12:00:22.109Z,28.30
2022-12-26T12:02:49.333Z,21.13
2022-12-26T12:05:47.027Z,25.50
2022-12-26T12:08:49.050Z,19.17
2022-12-26T12:11:50.072Z,18.13
2022-12-26T12:14:44.484Z,22.37
2022-12-26T12:17:32.713Z,16.33
2022-12-26T12:20:30.323Z,17.20
2022-12-26T12:23:15.756Z,16.10
2022-12-26T12:25:51.500Z,15.60
2022-12-26T12:28:27.598Z,21.07
2022-12-26T12:31:12.611Z,17.13
2022-12-26T12:34:01.485Z,15.27
2022-12-26T12:36:46.875Z,18.50
2022-12-26T12:39:21.140Z,20.90
2022-12-26T12:42:06.791Z,18.30
2022-12-26T12:44:56.581Z,18.93
2022-12-26T12:47:41.735Z,14.87
2022-12-26T12:50:21.449Z,17.30
2022-12-26T12:53:13.473Z,15.43
2022-12-26T12:56:05.584Z,19.47
2022-12-26T12:59:00.773Z,19.77
2022-12-26T13:01:35.616Z,16.73
2022-12-26T13:04:15.306Z,18.70
2022-12-26T13:06:53.502Z,18.20
2022-12-26T13:09:29.322Z,16.40
2022-12-26T13:12:06.335Z,18.67
2022-12-26T13:14:55.552Z,21.07
2022-12-26T13:17:30.910Z,18.67
2022-12-26T13:20:01.766Z,18.73
2022-12-26T13:22:57.280Z,16.33
2022-12-26T13:25:28.023Z,15.53
2022-12-26T13:28:09.418Z,18.97
2022-12-26T13:30:38.360Z,15.33
2022-12-26T13:33:06.424Z,14.90
2022-12-26T13:35:48.446Z,16.83
2022-12-26T13:38:15.804Z,16.23
2022-12-26T13:41:18.089Z,15.60
2022-12-26T13:44:05.540Z,17.90
2022-12-26T13:46:41.622Z,15.53
2022-12-26T13:49:35.962Z,15.23
2022-12-26T13:52:11.799Z,15.57
2022-12-26T13:54:48.166Z,15.77
2022-12-26T13:57:33.155Z,16.07
2022-12-26T14:00:09.796Z,13.70
2022-12-26T14:03:19.110Z,15.07
2022-12-26T14:06:17.913Z,15.30
2022-12-26T14:08:57.153Z,13.17
2022-12-26T14:11:45.414Z,11.73
2022-12-26T14:14:37.080Z,18.10
2022-12-26T14:17:25.337Z,14.70
2022-12-26T14:20:16.894Z,14.83
2022-12-26T14:23:02.214Z,14.47
2022-12-26T14:25:53.549Z,12.23
2022-12-26T14:28:43.799Z,13.07
2022-12-26T14:31:40.199Z,14.10
2022-12-26T14:34:18.819Z,14.50
2022-12-26T14:37:04.015Z,15.13
2022-12-26T14:39:33.705Z,13.83
2022-12-26T14:42:24.779Z,17.77
2022-12-26T14:45:02.455Z,18.40
2022-12-26T14:47:41.034Z,18.73
2022-12-26T14:50:32.618Z,17.10
2022-12-26T14:53:19.018Z,18.07
2022-12-26T14:55:53.646Z,17.23
2022-12-26T14:58:48.378Z,15.27
2022-12-26T15:01:15.867Z,17.67
2022-12-26T15:04:18.398Z,14.83
2022-12-26T15:07:00.133Z,13.73
2022-12-26T15:09:57.695Z,16.83
2022-12-26T15:12:39.456Z,16.00
2022-12-26T15:15:14.879Z,19.70
2022-12-26T15:18:00.719Z,16.53
2022-12-26T15:21:00.491Z,20.60
2022-12-26T15:24:02.837Z,18.57
2022-12-26T15:26:48.611Z,17.60
2022-12-26T15:29:47.814Z,20.17
2022-12-26T15:32:43.927Z,19.37
2022-12-26T15:35:22.542Z,22.10
2022-12-26T15:44:45.155Z,20.97
2022-12-26T15:47:32.178Z,20.67
2022-12-26T16:03:02.561Z,24.93
2022-12-26T16:05:42.363Z,20.40
2022-12-26T16:08:24.065Z,22.23
2022-12-26T16:11:18.428Z,23.90
2022-12-26T16:14:05.744Z,23.30
2022-12-26T16:16:36.101Z,24.07
2022-12-26T16:19:16.718Z,20.00
2022-12-26T16:22:08.348Z,20.43
2022-12-26T16:24:37.888Z,21.13
2022-12-26T16:27:08.061Z,24.30
2022-12-26T16:29:46.625Z,24.27
2022-12-26T16:32:18.263Z,25.07
2022-12-26T16:34:46.008Z,24.80
2022-12-26T16:37:22.514Z,25.33
2022-12-26T16:40:22.489Z,23.83
2022-12-26T16:43:21.424Z,25.93
2022-12-26T16:45:50.904Z,19.93
2022-12-26T16:48:21.850Z,24.00
2022-12-26T16:51:04.252Z,22.43
2022-12-26T16:53:34.552Z,20.63
2022-12-26T16:56:29.102Z,24.33
2022-12-26T16:59:17.002Z,19.70
2022-12-26T17:01:54.690Z,18.73
2022-12-26T17:04:25.108Z,21.30
2022-12-26T17:06:57.306Z,19.47
2022-12-26T17:09:27.153Z,17.53
2022-12-26T17:11:55.849Z,16.23
2022-12-26T17:14:28.088Z,18.53
2022-12-26T17:17:04.423Z,15.07
2022-12-26T17:19:34.875Z,16.30
2022-12-26T17:22:20.137Z,15.33
2022-12-26T17:24:50.271Z,20.10
2022-12-26T17:27:18.646Z,18.83
2022-12-26T17:29:53.483Z,18.47
2022-12-26T17:32:44.500Z,18.87
2022-12-26T17:35:19.468Z,19.90
2022-12-26T17:37:50.138Z,20.47
2022-12-26T17:40:18.984Z,20.40
2022-12-26T17:42:50.361Z,22.47
2022-12-26T17:45:26.094Z,21.07
2022-12-26T17:47:54.594Z,21.57
2022-12-26T17:50:24.362Z,22.03
2022-12-26T17:52:51.743Z,18.03
2022-12-26T17:55:27.037Z,18.33
2022-12-26T17:57:54.039Z,19.50
2022-12-26T18:00:24.374Z,20.00
2022-12-26T18:02:51.788Z,21.90
2022-12-26T18:05:20.487Z,19.30
2022-12-26T18:07:49.643Z,21.67
2022-12-26T18:10:29.344Z,21.80
2022-12-26T18:12:57.314Z,22.90
2022-12-26T18:15:27.529Z,22.67
2022-12-26T18:17:54.578Z,21.97
2022-12-26T18:20:25.621Z,20.13
2022-12-26T18:22:52.902Z,20.40
2022-12-26T18:25:24.683Z,21.13
2022-12-26T18:27:52.208Z,22.00
2022-12-26T18:30:24.935Z,22.80
2022-12-26T18:32:53.095Z,21.53
2022-12-26T18:35:21.280Z,22.07
2022-12-26T18:37:51.244Z,21.67
2022-12-26T18:40:29.539Z,22.83
2022-12-26T18:42:56.557Z,27.30
2022-12-26T18:45:24.297Z,22.93
2022-12-26T18:47:51.471Z,21.03
2022-12-26T18:50:18.869Z,20.70
2022-12-26T18:52:51.581Z,22.73
2022-12-26T18:55:21.785Z,22.37
2022-12-26T18:57:48.902Z,24.00
2022-12-26T19:00:20.226Z,23.23
2022-12-26T19:02:48.245Z,22.87
2022-12-26T19:05:34.540Z,18.50
2022-12-26T19:08:02.938Z,26.67
2022-12-26T19:10:33.781Z,21.77
2022-12-26T19:13:06.020Z,21.50
2022-12-26T19:15:35.326Z,22.03
2022-12-26T19:18:03.707Z,19.40
2022-12-26T19:20:31.484Z,21.40
2022-12-26T19:22:58.503Z,24.50
2022-12-26T19:25:26.638Z,22.23
2022-12-26T19:27:54.503Z,18.67
2022-12-26T19:30:22.812Z,20.53
2022-12-26T19:32:50.828Z,20.83
2022-12-26T19:35:18.502Z,19.10
2022-12-26T19:37:45.823Z,21.63
2022-12-26T19:40:18.397Z,19.93
2022-12-26T19:42:48.402Z,22.40
2022-12-26T19:45:16.202Z,23.00
2022-12-26T19:47:43.187Z,22.43
2022-12-26T19:50:11.689Z,22.53
2022-12-26T19:52:39.578Z,19.07
2022-12-26T19:55:08.382Z,20.97
2022-12-26T19:57:35.490Z,24.17
2022-12-26T20:00:03.990Z,21.83
2022-12-26T20:02:31.107Z,22.40
2022-12-26T20:04:58.468Z,20.67
2022-12-26T20:07:25.479Z,26.67
2022-12-26T20:09:52.777Z,19.93
2022-12-26T20:12:19.938Z,21.30
2022-12-26T20:14:47.227Z,23.93
2022-12-26T20:17:14.337Z,17.93
2022-12-26T20:19:43.333Z,18.20
2022-12-26T20:22:11.957Z,19.37
2022-12-26T20:24:39.216Z,20.00
2022-12-26T20:27:06.254Z,18.43
2022-12-26T20:29:33.615Z,17.33
2022-12-26T20:32:00.661Z,19.00
2022-12-26T20:34:28.146Z,17.13
2022-12-26T20:36:55.138Z,19.97
2022-12-26T20:39:23.377Z,16.00
2022-12-26T20:41:51.008Z,17.57
2022-12-26T20:44:18.722Z,18.47
2022-12-26T20:46:45.875Z,16.20
2022-12-26T20:49:13.264Z,15.90
2022-12-26T20:51:41.931Z,18.10
2022-12-26T20:54:11.616Z,14.80
2022-12-26T20:56:40.233Z,19.73
2022-12-26T20:59:07.772Z,20.43
2022-12-26T21:01:36.600Z,17.87
2022-12-26T21:04:04.286Z,17.73
2022-12-26T21:06:34.949Z,18.13
2022-12-26T21:09:02.645Z,18.07
2022-12-26T21:11:32.456Z,16.57
2022-12-26T21:14:05.733Z,16.57
2022-12-26T21:16:36.893Z,16.03
2022-12-26T21:19:08.030Z,16.70
2022-12-26T21:21:41.101Z,17.67
2022-12-26T21:24:12.801Z,17.83
2022-12-26T21:26:42.459Z,16.87
2022-12-26T21:29:14.226Z,19.10
2022-12-26T21:31:42.240Z,17.83
2022-12-26T21:34:10.382Z,16.87
2022-12-26T21:36:39.082Z,18.70
2022-12-26T21:39:08.645Z,17.53
2022-12-26T21:41:38.943Z,16.80
2022-12-26T21:44:05.949Z,20.90
2022-12-26T21:46:33.276Z,16.97
2022-12-26T21:49:01.087Z,18.67
2022-12-26T21:51:29.710Z,19.67
2022-12-26T21:54:16.647Z,18.27
2022-12-26T21:56:43.856Z,17.20
2022-12-26T21:59:29.545Z,17.90
2022-12-26T22:01:56.905Z,16.20
2022-12-26T22:04:24.010Z,17.00
2022-12-26T22:06:51.716Z,17.17
2022-12-26T22:09:18.888Z,16.70
2022-12-26T22:12:05.584Z,18.23
2022-12-26T22:14:32.534Z,17.63
2022-12-26T22:16:59.767Z,19.47
2022-12-26T22:19:26.792Z,18.43
2022-12-26T22:21:54.928Z,18.77
2022-12-26T22:24:22.678Z,16.03
2022-12-26T22:26:50.258Z,17.30
2022-12-26T22:29:17.205Z,14.20
2022-12-26T22:31:44.647Z,16.53
2022-12-26T22:34:14.075Z,17.37
2022-12-26T22:36:42.286Z,16.70
2022-12-26T22:39:14.024Z,15.97
2022-12-26T22:41:41.276Z,18.50
2022-12-26T22:44:14.933Z,17.13
2022-12-26T22:46:42.857Z,18.10
2022-12-26T22:49:09.938Z,16.40
2022-12-26T22:51:37.420Z,17.70
2022-12-26T22:54:04.426Z,19.50
2022-12-26T22:56:33.194Z,22.07
2022-12-26T22:59:00.678Z,21.43
2022-12-26T23:01:28.718Z,19.40
2022-12-26T23:03:55.882Z,19.07
2022-12-26T23:06:26.593Z,18.20
2022-12-26T23:08:56.672Z,18.27
2022-12-26T23:11:32.176Z,19.53
2022-12-26T23:14:03.171Z,18.40
2022-12-26T23:16:44.192Z,16.20
2022-12-26T23:19:44.545Z,21.60
2022-12-26T23:22:11.972Z,21.70
2022-12-26T23:24:38.916Z,20.20
2022-12-26T23:27:26.801Z,18.03
2022-12-26T23:30:13.513Z,19.00
2022-12-26T23:32:42.913Z,25.50
2022-12-26T23:35:11.084Z,18.67
2022-12-26T23:37:40.172Z,18.87
2022-12-26T23:40:09.255Z,19.50
2022-12-26T23:42:37.067Z,20.30
2022-12-26T23:45:04.432Z,16.80
2022-12-26T23:47:31.829Z,18.53
2022-12-26T23:49:58.768Z,19.37
2022-12-26T23:52:30.244Z,17.80
2022-12-26T23:54:58.146Z,19.07
2022-12-26T23:57:26.077Z,19.13
2022-12-26T23:59:53.169Z,18.83
